Time;durP1;ratioP1;P1;durP2;ratioP2;P2;SDS_P1;SDS_P2;PMS_P1;PMS_P2;Temp;Humidity;BMP_temperature;BMP_pressure;BME280_temperature;BME280_humidity;BME280_pressure;Samples;Min_cycle;Max_cycle;Signal;HPM_P1;HPM_P2
2023/07/06 00:00:00;;;;;;;5.07;2.93;;;;;;;12.14;100.00;100797.47;690479;28;1027;-61
2023/07/06 00:00:21;;;;;;;4.38;2.90;;;;;;;12.15;100.00;100793.97;689155;28;1623;-61
2023/07/06 00:00:47;;;;;;;4.20;2.80;;;;;;;12.19;100.00;100797.44;689757;28;805;-61
2023/07/06 00:01:09;;;;;;;5.03;3.33;;;;;;;12.19;100.00;100797.44;690115;28;4409;-61
2023/07/06 00:01:29;;;;;;;4.90;3.13;;;;;;;12.18;100.00;100793.94;688951;28;1525;-61
2023/07/06 00:01:49;;;;;;;5.00;3.00;;;;;;;12.18;100.00;100798.31;690247;28;856;-60
2023/07/06 00:02:10;;;;;;;5.30;3.10;;;;;;;12.17;100.00;100796.56;690684;28;880;-61
2023/07/06 00:02:30;;;;;;;4.97;3.10;;;;;;;12.19;100.00;100790.44;689471;28;1593;-61
2023/07/06 00:02:51;;;;;;;4.80;3.03;;;;;;;12.21;100.00;100793.94;689879;28;1302;-61
2023/07/06 00:03:14;;;;;;;4.97;3.00;;;;;;;12.19;100.00;100798.31;690113;28;999;-60
2023/07/06 00:03:36;;;;;;;5.20;3.00;;;;;;;12.18;100.00;100798.31;688481;28;1740;-61
2023/07/06 00:03:57;;;;;;;5.13;2.83;;;;;;;12.16;100.00;100793.09;689785;28;971;-60
2023/07/06 00:04:18;;;;;;;5.80;3.20;;;;;;;12.16;100.00;100794.84;689286;28;4458;-60
2023/07/06 00:04:38;;;;;;;6.13;3.22;;;;;;;12.16;100.00;100798.34;690663;28;972;-61
2023/07/06 00:04:59;;;;;;;5.43;3.07;;;;;;;12.16;100.00;100790.47;690419;28;947;-61
2023/07/06 00:05:22;;;;;;;4.73;3.00;;;;;;;12.16;100.00;100798.34;689138;28;1547;-61
2023/07/06 00:05:46;;;;;;;5.57;3.00;;;;;;;12.15;100.00;100793.97;689255;28;932;-60
2023/07/06 00:06:08;;;;;;;5.82;3.30;;;;;;;12.20;100.00;100797.44;689907;28;762;-60
2023/07/06 00:06:29;;;;;;;5.35;3.20;;;;;;;12.22;100.00;100795.66;689372;28;1788;-61
2023/07/06 00:06:49;;;;;;;5.67;3.13;;;;;;;12.24;100.00;100793.03;689901;28;1334;-61
2023/07/06 00:07:10;;;;;;;4.35;2.88;;;;;;;12.26;100.00;100801.75;689439;28;4315;-61
2023/07/06 00:07:31;;;;;;;4.70;2.75;;;;;;;12.27;100.00;100795.63;689440;28;895;-60
2023/07/06 00:07:53;;;;;;;4.97;2.90;;;;;;;12.24;100.00;100796.50;690106;28;912;-61
2023/07/06 00:08:16;;;;;;;5.22;3.00;;;;;;;12.23;100.00;100797.38;689843;28;1919;-61
2023/07/06 00:08:39;;;;;;;5.60;3.08;;;;;;;12.26;100.00;100802.59;688951;28;1596;-61
2023/07/06 00:09:00;;;;;;;4.30;2.65;;;;;;;12.27;100.00;100793.84;689840;28;999;-61
2023/07/06 00:09:20;;;;;;;4.72;2.90;;;;;;;12.26;100.00;100797.34;689172;28;1060;-61
2023/07/06 00:09:41;;;;;;;4.73;3.03;;;;;;;12.29;100.00;100798.22;689782;28;880;-60
2023/07/06 00:10:04;;;;;;;4.30;2.70;;;;;;;12.29;100.00;100801.69;689680;28;1265;-61
2023/07/06 00:10:25;;;;;;;4.32;2.88;;;;;;;12.26;100.00;100805.22;688646;28;4212;-61
2023/07/06 00:10:52;;;;;;;6.20;3.08;;;;;;;12.24;100.00;100799.13;690845;28;861;-61
2023/07/06 00:11:13;;;;;;;5.03;3.05;;;;;;;12.22;100.00;100806.13;689265;28;1057;-61
2023/07/06 00:11:36;;;;;;;4.90;2.78;;;;;;;12.21;100.00;100803.53;688900;28;1179;-61
2023/07/06 00:11:57;;;;;;;4.90;2.90;;;;;;;12.19;100.00;100800.91;690518;28;1054;-61
2023/07/06 00:12:19;;;;;;;4.63;2.97;;;;;;;12.20;100.00;100800.03;690160;28;840;-61
2023/07/06 00:12:39;;;;;;;5.15;3.00;;;;;;;12.23;100.00;100801.78;689761;28;888;-60
2023/07/06 00:13:01;;;;;;;5.35;3.03;;;;;;;12.24;100.00;100806.13;690348;28;1333;-60
2023/07/06 00:13:22;;;;;;;4.85;2.70;;;;;;;12.24;100.00;100801.75;688395;28;4546;-61
2023/07/06 00:13:45;;;;;;;5.18;3.00;;;;;;;12.24;100.00;100809.63;690450;28;1033;-61
2023/07/06 00:14:07;;;;;;;4.60;2.90;;;;;;;12.25;100.00;100806.13;689050;28;1023;-61
2023/07/06 00:14:28;;;;;;;4.57;2.70;;;;;;;12.26;100.00;100806.97;688347;28;1598;-61
2023/07/06 00:14:50;;;;;;;5.10;3.10;;;;;;;12.25;100.00;100800.88;690486;28;1297;-61
2023/07/06 00:15:11;;;;;;;4.72;3.00;;;;;;;12.24;100.00;100806.13;689434;28;979;-61
2023/07/06 00:15:33;;;;;;;5.77;3.20;;;;;;;12.19;100.00;100803.53;689171;28;1729;-61
2023/07/06 00:15:55;;;;;;;5.45;2.80;;;;;;;12.19;100.00;100806.16;689640;28;971;-61
2023/07/06 00:16:16;;;;;;;4.90;2.92;;;;;;;12.18;100.00;100807.03;689588;28;4373;-60
2023/07/06 00:16:41;;;;;;;5.28;2.92;;;;;;;12.19;100.00;100800.91;688383;28;1575;-60
2023/07/06 00:17:12;;;;;;;6.30;3.00;;;;;;;12.20;100.00;100805.28;690272;28;983;-61
2023/07/06 00:17:33;;;;;;;5.43;2.95;;;;;;;12.21;100.00;100808.75;688441;28;1086;-61
2023/07/06 00:17:53;;;;;;;5.40;2.90;;;;;;;12.22;100.00;100803.50;690364;28;1365;-61
2023/07/06 00:18:13;;;;;;;5.15;2.90;;;;;;;12.22;100.00;100802.66;689990;28;892;-61
2023/07/06 00:18:34;;;;;;;5.03;2.90;;;;;;;12.23;100.00;100801.78;689121;28;1539;-61
2023/07/06 00:18:58;;;;;;;5.10;2.90;;;;;;;12.24;100.00;100809.63;689408;28;1050;-61
2023/07/06 00:19:19;;;;;;;4.88;2.80;;;;;;;12.24;100.00;100801.75;688992;28;4494;-61
2023/07/06 00:19:40;;;;;;;5.18;3.13;;;;;;;12.27;100.00;100809.59;688337;28;3119;-61
2023/07/06 00:20:00;;;;;;;4.80;3.17;;;;;;;12.30;100.00;100810.47;690353;28;875;-61
2023/07/06 00:20:21;;;;;;;4.40;2.80;;;;;;;12.30;100.00;100805.22;688699;28;1590;-59
2023/07/06 00:20:41;;;;;;;4.82;2.90;;;;;;;12.32;100.00;100808.66;689641;28;1174;-61
2023/07/06 00:21:03;;;;;;;6.65;3.15;;;;;;;12.33;100.00;100807.78;690500;28;1483;-60
2023/07/06 00:21:27;;;;;;;5.35;3.05;;;;;;;12.32;100.00;100811.28;689564;28;1674;-61
2023/07/06 00:21:49;;;;;;;4.55;3.03;;;;;;;12.27;100.00;100812.22;688922;28;891;-61
2023/07/06 00:22:11;;;;;;;5.47;2.92;;;;;;;12.26;100.00;100804.34;689905;28;4525;-61
2023/07/06 00:22:31;;;;;;;5.93;2.95;;;;;;;12.24;100.00;100804.38;688175;28;1435;-61
2023/07/06 00:22:53;;;;;;;5.90;2.97;;;;;;;12.24;100.00;100801.75;690239;28;1294;-60
2023/07/06 00:23:14;;;;;;;5.28;2.90;;;;;;;12.26;100.00;100805.22;689847;28;821;-61
2023/07/06 00:23:34;;;;;;;5.13;3.00;;;;;;;12.23;100.00;100801.78;689470;28;1532;-61
2023/07/06 00:23:55;;;;;;;4.40;3.00;;;;;;;12.21;100.00;100804.41;690090;28;972;-61
2023/07/06 00:24:16;;;;;;;4.57;2.80;;;;;;;12.21;100.00;100809.66;690809;28;1282;-61
2023/07/06 00:24:37;;;;;;;4.22;2.80;;;;;;;12.24;100.00;100812.25;689163;28;1464;-61
2023/07/06 00:24:57;;;;;;;4.50;2.83;;;;;;;12.22;100.00;100811.38;690208;28;856;-61
2023/07/06 00:25:19;;;;;;;4.97;3.00;;;;;;;12.21;100.00;100809.66;690076;28;4279;-61
2023/07/06 00:25:42;;;;;;;4.47;2.80;;;;;;;12.22;100.00;100806.13;687382;28;1291;-61
2023/07/06 00:26:02;;;;;;;4.53;3.05;;;;;;;12.23;100.00;100805.25;686120;28;1481;-60
2023/07/06 00:26:23;;;;;;;5.17;2.97;;;;;;;12.24;100.00;100801.75;686109;28;2193;-61
2023/07/06 00:26:44;;;;;;;5.20;3.15;;;;;;;12.23;100.00;100802.63;686891;28;880;-60
2023/07/06 00:27:06;;;;;;;5.20;3.10;;;;;;;12.22;100.00;100798.25;684787;28;1228;-60
2023/07/06 00:27:28;;;;;;;4.97;3.10;;;;;;;12.23;100.00;100799.16;685307;28;1508;-61
2023/07/06 00:27:49;;;;;;;6.10;3.22;;;;;;;12.21;100.00;100801.78;689957;28;793;-60
2023/07/06 00:28:11;;;;;;;6.13;3.35;;;;;;;12.22;100.00;100806.13;688572;28;4526;-61
2023/07/06 00:28:34;;;;;;;6.10;3.00;;;;;;;12.23;100.00;100807.88;685967;28;1560;-61
2023/07/06 00:28:55;;;;;;;5.50;3.00;;;;;;;12.24;100.00;100809.63;685878;28;2090;-61
2023/07/06 00:29:15;;;;;;;5.68;3.10;;;;;;;12.23;100.00;100802.63;684140;28;1299;-61
2023/07/06 00:29:46;;;;;;;4.95;2.97;;;;;;;12.21;100.00;100804.41;683809;28;1504;-61
2023/07/06 00:30:18;;;;;;;5.35;3.05;;;;;;;12.20;100.00;100802.66;683403;28;1232;-60
2023/07/06 00:31:10;;;;;;;5.63;3.08;;;;;;;12.20;100.00;100802.66;685624;28;4425;-61
2023/07/06 00:31:40;;;;;;;4.97;3.22;;;;;;;12.21;100.00;100807.03;687189;28;1472;-61
2023/07/06 00:32:15;;;;;;;5.10;3.15;;;;;;;12.19;100.00;100800.91;691977;28;900;-62
2023/07/06 00:32:35;;;;;;;5.30;3.15;;;;;;;12.19;100.00;100797.44;688984;28;1504;-60
2023/07/06 00:32:57;;;;;;;5.10;3.10;;;;;;;12.19;100.00;100800.91;689975;28;993;-61
2023/07/06 00:33:18;;;;;;;5.53;3.05;;;;;;;12.19;100.00;100800.91;690264;28;983;-61
2023/07/06 00:33:38;;;;;;;5.30;3.20;;;;;;;12.21;100.00;100798.28;689117;28;1534;-60
2023/07/06 00:34:03;;;;;;;5.03;3.20;;;;;;;12.24;100.00;100799.13;690188;28;1388;-61
2023/07/06 00:34:24;;;;;;;6.57;3.38;;;;;;;12.24;100.00;100796.50;687423;28;4490;-60
2023/07/06 00:34:44;;;;;;;5.37;3.10;;;;;;;12.25;100.00;100800.00;690448;28;936;-60
2023/07/06 00:35:05;;;;;;;4.85;3.13;;;;;;;12.23;100.00;100796.53;689309;28;824;-61
2023/07/06 00:35:25;;;;;;;5.22;3.20;;;;;;;12.24;100.00;100799.13;686045;28;1679;-61
2023/07/06 00:35:47;;;;;;;5.83;3.30;;;;;;;12.25;100.00;100800.88;684848;28;1575;-61
2023/07/06 00:36:07;;;;;;;5.30;3.10;;;;;;;12.26;100.00;100801.75;685461;28;857;-61
2023/07/06 00:36:28;;;;;;;5.27;3.10;;;;;;;12.25;100.00;100797.38;685961;28;1444;-61
2023/07/06 00:36:49;;;;;;;4.85;3.22;;;;;;;12.23;100.00;100802.63;687385;28;924;-61
2023/07/06 00:37:12;;;;;;;5.23;3.17;;;;;;;12.23;100.00;100800.00;684023;28;4420;-61
2023/07/06 00:37:32;;;;;;;4.63;2.80;;;;;;;12.23;100.00;100799.16;686213;28;2075;-60
2023/07/06 00:37:54;;;;;;;4.60;2.85;;;;;;;12.19;100.00;100800.91;688585;28;797;-60
2023/07/06 00:38:21;;;;;;;5.00;2.90;;;;;;;12.19;100.00;100805.31;687750;28;3469;-60
2023/07/06 00:38:41;;;;;;;5.35;3.15;;;;;;;12.15;100.00;100801.84;686589;28;1393;-60
2023/07/06 00:39:03;;;;;;;5.50;3.00;;;;;;;12.13;100.00;100800.09;686389;28;869;-61
2023/07/06 00:39:24;;;;;;;5.22;2.92;;;;;;;12.12;100.00;100803.63;687746;28;1799;-60
2023/07/06 00:39:44;;;;;;;5.18;3.00;;;;;;;12.11;100.00;100807.13;687187;28;1241;-61
2023/07/06 00:40:09;;;;;;;5.07;3.10;;;;;;;12.14;100.00;100801.84;686578;28;1348;-61
2023/07/06 00:40:31;;;;;;;5.10;3.17;;;;;;;12.15;100.00;100804.44;680880;28;4999;-61
2023/07/06 00:40:56;;;;;;;4.65;2.97;;;;;;;12.12;100.00;100804.50;685311;28;956;-60
2023/07/06 00:41:17;;;;;;;4.75;3.03;;;;;;;12.12;100.00;100799.25;686451;28;865;-60
2023/07/06 00:41:37;;;;;;;4.30;2.80;;;;;;;12.13;100.00;100801.00;685229;28;1457;-60
2023/07/06 00:41:58;;;;;;;5.27;3.10;;;;;;;12.12;100.00;100804.50;687757;28;1203;-61
2023/07/06 00:42:20;;;;;;;5.13;3.10;;;;;;;12.10;100.00;100806.22;690521;28;5525;-61
2023/07/06 00:42:41;;;;;;;4.57;2.90;;;;;;;12.07;100.00;100801.03;692870;28;1074;-61
2023/07/06 00:43:01;;;;;;;5.40;3.03;;;;;;;12.08;100.00;100802.78;692507;28;928;-60
2023/07/06 00:43:27;;;;;;;5.32;2.95;;;;;;;12.08;100.00;100803.63;688433;28;4484;-60
2023/07/06 00:43:54;;;;;;;5.20;3.20;;;;;;;12.09;100.00;100800.13;692194;28;1554;-60
2023/07/06 00:44:52;;;;;;;4.95;2.78;;;;;;;12.07;100.00;100801.03;693091;28;1122;-61
2023/07/06 00:45:12;;;;;;;4.72;3.00;;;;;;;12.04;100.00;100799.31;688471;28;1555;-61
2023/07/06 00:45:34;;;;;;;4.80;3.10;;;;;;;12.07;100.00;100798.41;689272;28;1547;-61
2023/07/06 00:46:04;;;;;;;4.80;3.00;;;;;;;12.07;100.00;100801.03;689819;28;1050;-60
2023/07/06 00:46:36;;;;;;;4.93;2.90;;;;;;;12.06;100.00;100804.56;686004;28;6333;-61
2023/07/06 00:46:57;;;;;;;4.70;2.80;;;;;;;12.04;100.00;100798.44;687122;28;1440;-61
2023/07/06 00:47:35;;;;;;;4.97;3.15;;;;;;;12.07;100.00;100801.03;689017;28;864;-60
2023/07/06 00:47:59;;;;;;;4.97;3.05;;;;;;;12.13;100.00;100800.09;684404;28;2349;-60
2023/07/06 00:48:32;;;;;;;5.30;3.17;;;;;;;12.16;100.00;100802.72;685180;28;2005;-60
2023/07/06 00:48:54;;;;;;;4.57;2.90;;;;;;;12.16;100.00;100794.84;686323;28;893;-61
2023/07/06 00:49:15;;;;;;;4.93;3.10;;;;;;;12.12;100.00;100799.25;685665;28;4401;-61
2023/07/06 00:49:35;;;;;;;4.97;3.00;;;;;;;12.11;100.00;100792.25;686262;28;1614;-60
2023/07/06 00:50:02;;;;;;;4.40;2.77;;;;;;;12.11;100.00;100791.41;685787;28;1369;-61
2023/07/06 00:50:25;;;;;;;5.32;2.78;;;;;;;12.06;100.00;100800.16;685872;28;996;-61
2023/07/06 00:50:52;;;;;;;5.45;2.95;;;;;;;12.04;100.00;100801.06;689463;28;960;-60
2023/07/06 00:51:16;;;;;;;5.18;2.85;;;;;;;12.03;100.00;100797.59;685814;28;2138;-60
2023/07/06 00:51:39;;;;;;;4.70;2.92;;;;;;;11.99;100.00;100792.38;683045;28;1588;-60
2023/07/06 00:52:00;;;;;;;5.15;3.25;;;;;;;11.96;100.00;100800.25;685953;28;900;-60
2023/07/06 00:52:22;;;;;;;5.43;3.10;;;;;;;11.99;100.00;100792.38;683468;28;4569;-60
2023/07/06 00:52:54;;;;;;;4.90;3.08;;;;;;;12.02;100.00;100800.22;686254;28;1035;-61
2023/07/06 00:53:17;;;;;;;4.60;3.05;;;;;;;12.03;100.00;100800.22;686247;28;1417;-61
2023/07/06 00:53:43;;;;;;;5.13;3.10;;;;;;;12.02;100.00;100802.84;684962;28;1464;-60
2023/07/06 00:54:17;;;;;;;5.65;3.05;;;;;;;12.01;100.00;100795.84;685945;28;937;-60
2023/07/06 00:54:42;;;;;;;5.30;3.00;;;;;;;12.01;100.00;100795.84;685529;28;1486;-60
2023/07/06 00:55:06;;;;;;;5.07;2.70;;;;;;;11.98;100.00;100799.38;687792;28;948;-61
2023/07/06 00:55:31;;;;;;;4.60;2.95;;;;;;;11.97;100.00;100794.16;686146;28;4654;-60
2023/07/06 00:55:57;;;;;;;5.07;3.05;;;;;;;11.98;100.00;100801.97;689013;28;849;-60
2023/07/06 00:56:23;;;;;;;4.50;2.80;;;;;;;11.98;100.00;100798.50;689924;28;1426;-60
2023/07/06 00:56:46;;;;;;;4.57;2.60;;;;;;;11.96;100.00;100797.63;689462;28;924;-60
2023/07/06 00:57:11;;;;;;;4.82;2.75;;;;;;;11.96;100.00;100800.25;690341;28;924;-61
2023/07/06 00:57:32;;;;;;;5.72;3.20;;;;;;;11.97;100.00;100799.38;686183;28;2318;-60
2023/07/06 00:57:57;;;;;;;5.45;3.38;;;;;;;11.92;100.00;100796.75;687273;28;1012;-60
2023/07/06 00:58:23;;;;;;;4.70;3.15;;;;;;;11.88;100.00;100801.16;683972;28;4537;-60
2023/07/06 00:58:46;;;;;;;4.88;2.92;;;;;;;11.91;100.00;100800.28;683658;28;2195;-60
2023/07/06 00:59:11;;;;;;;4.55;2.85;;;;;;;11.88;100.00;100795.03;684980;28;1011;-60
2023/07/06 00:59:33;;;;;;;4.75;2.85;;;;;;;11.87;100.00;100791.56;688304;28;1135;-60
2023/07/06 00:59:54;;;;;;;5.07;3.20;;;;;;;11.88;100.00;100792.41;689221;28;889;-60
2023/07/06 01:00:21;;;;;;;5.70;3.33;;;;;;;11.89;100.00;100794.16;683108;28;1254;-60
2023/07/06 01:00:44;;;;;;;4.63;3.17;;;;;;;11.89;100.00;100795.06;686300;28;956;-60
2023/07/06 01:01:08;;;;;;;5.13;3.00;;;;;;;11.89;100.00;100800.28;687653;28;1033;-60
2023/07/06 01:01:31;;;;;;;4.95;2.80;;;;;;;11.89;100.00;100799.41;685814;28;4812;-60
2023/07/06 01:01:52;;;;;;;5.32;3.00;;;;;;;11.87;100.00;100796.78;686163;28;945;-60
2023/07/06 01:02:16;;;;;;;5.17;2.97;;;;;;;11.88;100.00;100795.91;689351;28;841;-61
2023/07/06 01:02:40;;;;;;;5.57;3.00;;;;;;;11.88;100.00;100795.91;688892;28;2217;-60
2023/07/06 01:03:02;;;;;;;6.05;3.00;;;;;;;11.90;100.00;100795.91;687443;28;1549;-60
2023/07/06 01:03:22;;;;;;;5.15;2.90;;;;;;;11.88;100.00;100795.91;683713;28;2054;-61
2023/07/06 01:03:47;;;;;;;5.40;3.00;;;;;;;11.90;100.00;100795.91;684440;28;1147;-60
2023/07/06 01:04:11;;;;;;;4.57;3.00;;;;;;;11.89;100.00;100795.06;683467;28;4562;-60
2023/07/06 01:04:32;;;;;;;4.97;3.00;;;;;;;11.87;100.00;100794.19;684803;28;927;-60
2023/07/06 01:04:53;;;;;;;4.70;2.90;;;;;;;11.84;100.00;100799.44;687038;28;840;-60
2023/07/06 01:05:14;;;;;;;5.60;3.25;;;;;;;11.84;100.00;100788.97;691031;28;1360;-60
2023/07/06 01:05:38;;;;;;;5.05;3.30;;;;;;;11.85;100.00;100795.06;690485;28;1448;-60
2023/07/06 01:06:03;;;;;;;4.28;2.83;;;;;;;11.87;100.00;100791.56;690976;28;1026;-60
2023/07/06 01:06:31;;;;;;;4.22;2.75;;;;;;;11.86;100.00;100791.56;689257;28;1606;-61
2023/07/06 01:06:54;;;;;;;5.00;2.80;;;;;;;11.84;100.00;100795.97;689160;28;1396;-60
2023/07/06 01:07:20;;;;;;;4.65;3.00;;;;;;;11.82;100.00;100793.34;686534;28;4395;-61
2023/07/06 01:07:44;;;;;;;5.20;3.20;;;;;;;11.80;100.00;100796.88;686449;28;1511;-60
2023/07/06 01:08:12;;;;;;;5.35;3.10;;;;;;;11.81;100.00;100796.88;685891;28;1985;-60
2023/07/06 01:08:35;;;;;;;5.03;3.20;;;;;;;11.81;100.00;100799.47;688499;28;1495;-60
2023/07/06 01:08:57;;;;;;;5.07;3.20;;;;;;;11.81;100.00;100791.63;683826;28;1249;-60
2023/07/06 01:09:18;;;;;;;4.97;3.10;;;;;;;11.80;100.00;100791.63;687568;28;900;-60
2023/07/06 01:09:39;;;;;;;5.32;3.28;;;;;;;11.81;100.00;100786.38;686375;28;1556;-60
2023/07/06 01:10:00;;;;;;;5.03;3.30;;;;;;;11.82;100.00;100793.34;687139;28;1410;-60
2023/07/06 01:10:20;;;;;;;5.60;3.25;;;;;;;11.83;100.00;100796.84;686799;28;4356;-60
2023/07/06 01:10:43;;;;;;;6.23;3.23;;;;;;;11.78;100.00;100783.75;687751;28;1544;-60
2023/07/06 01:11:04;;;;;;;5.70;3.05;;;;;;;11.76;100.00;100790.78;690688;28;971;-60
2023/07/06 01:11:24;;;;;;;5.30;3.30;;;;;;;11.75;100.00;100799.50;690627;28;1491;-61
2023/07/06 01:11:46;;;;;;;5.95;3.30;;;;;;;11.76;100.00;100796.00;691151;28;869;-60
2023/07/06 01:12:09;;;;;;;6.72;3.90;;;;;;;11.76;100.00;100790.78;691246;28;1058;-60
2023/07/06 01:12:30;;;;;;;5.50;3.28;;;;;;;11.74;100.00;100796.03;689551;28;1005;-61
2023/07/06 01:12:50;;;;;;;5.75;3.10;;;;;;;11.75;100.00;100789.03;690592;28;953;-60
2023/07/06 01:13:11;;;;;;;5.40;3.17;;;;;;;11.76;100.00;100794.25;689710;28;4449;-60
2023/07/06 01:13:32;;;;;;;5.40;2.93;;;;;;;11.77;100.00;100795.16;689311;28;1531;-60
2023/07/06 01:13:53;;;;;;;5.50;3.03;;;;;;;11.76;100.00;100790.78;690264;28;1058;-60
2023/07/06 01:14:14;;;;;;;5.00;2.92;;;;;;;11.73;100.00;100791.66;690155;28;920;-60
2023/07/06 01:14:35;;;;;;;4.80;3.20;;;;;;;11.72;100.00;100794.31;688768;28;1500;-61
2023/07/06 01:14:56;;;;;;;6.13;3.40;;;;;;;11.70;100.00;100790.81;690199;28;1591;-60
2023/07/06 01:15:16;;;;;;;7.00;3.23;;;;;;;11.71;100.00;100795.16;684023;28;1102;-60
2023/07/06 01:15:43;;;;;;;6.75;3.40;;;;;;;11.71;100.00;100789.94;680882;28;1471;-60
2023/07/06 01:16:14;;;;;;;4.70;3.00;;;;;;;11.72;100.00;100792.53;681503;29;3305;-60
2023/07/06 01:16:42;;;;;;;5.57;3.10;;;;;;;11.71;100.00;100793.44;681745;28;4818;-61
2023/07/06 01:17:08;;;;;;;5.80;3.20;;;;;;;11.74;100.00;100792.53;686617;28;1118;-60
2023/07/06 01:17:53;;;;;;;5.72;3.40;;;;;;;11.68;100.00;100792.59;688332;28;1884;-61
2023/07/06 01:18:23;;;;;;;5.55;3.20;;;;;;;11.67;100.00;100790.84;689835;28;924;-60
2023/07/06 01:19:03;;;;;;;5.68;3.20;;;;;;;11.65;100.00;100788.22;685708;28;1008;-60
2023/07/06 01:19:33;;;;;;;5.78;2.97;;;;;;;11.66;100.00;100795.22;685643;28;4349;-61
2023/07/06 01:20:21;;;;;;;5.55;3.20;;;;;;;11.64;100.00;100790.88;688473;28;909;-60
2023/07/06 01:20:50;;;;;;;6.03;3.25;;;;;;;11.61;100.00;100786.50;687696;28;1560;-60
2023/07/06 01:21:18;;;;;;;5.32;3.42;;;;;;;11.63;100.00;100789.13;689170;28;1337;-60
2023/07/06 01:22:01;;;;;;;4.93;3.25;;;;;;;11.65;100.00;100792.63;688858;28;1564;-60
2023/07/06 01:22:38;;;;;;;4.75;2.85;;;;;;;11.65;100.00;100795.22;690250;28;4493;-60
2023/07/06 01:23:26;;;;;;;6.40;3.22;;;;;;;11.62;100.00;100788.25;689651;28;1894;-60
2023/07/06 01:24:18;;;;;;;5.22;3.33;;;;;;;11.57;100.00;100790.91;681166;29;1196;-60
2023/07/06 01:24:39;;;;;;;5.10;3.20;;;;;;;11.58;100.00;100797.03;672686;29;1537;-60
2023/07/06 01:25:18;;;;;;;5.38;3.42;;;;;;;11.58;100.00;100792.63;675258;29;1247;-60
2023/07/06 01:26:05;;;;;;;5.75;3.10;;;;;;;11.56;100.00;100794.41;687069;28;4992;-60
2023/07/06 01:27:07;;;;;;;4.93;3.10;;;;;;;11.57;100.00;100795.28;687808;28;1486;-60
2023/07/06 01:27:49;;;;;;;5.07;2.85;;;;;;;11.57;100.00;100797.88;683874;28;2149;-60
2023/07/06 01:28:21;;;;;;;4.68;3.10;;;;;;;11.56;100.00;100804.00;681748;29;4621;-60
2023/07/06 01:29:00;;;;;;;4.90;3.10;;;;;;;11.56;100.00;100804.00;681563;28;1558;-60
2023/07/06 01:29:21;;;;;;;5.63;3.17;;;;;;;11.52;100.00;100800.56;676914;29;1427;-60
2023/07/06 01:29:41;;;;;;;5.10;3.17;;;;;;;11.49;100.00;100794.44;676205;29;1484;-60
2023/07/06 01:30:24;;;;;;;6.27;3.57;;;;;;;11.47;100.00;100802.31;679325;28;1097;-60
2023/07/06 01:31:18;;;;;;;5.18;3.40;;;;;;;11.44;100.00;100799.72;686493;28;1264;-60
2023/07/06 01:31:52;;;;;;;5.07;2.65;;;;;;;11.48;100.00;100795.31;689151;28;5169;-60
2023/07/06 01:32:18;;;;;;;5.43;3.50;;;;;;;11.46;100.00;100800.56;690472;28;924;-60
2023/07/06 01:32:47;;;;;;;5.70;3.20;;;;;;;11.45;100.00;100797.97;690404;28;2191;-60
2023/07/06 01:33:16;;;;;;;5.38;3.38;;;;;;;11.45;100.00;100800.59;692389;28;988;-60
2023/07/06 01:33:41;;;;;;;4.72;2.85;;;;;;;11.43;100.00;100792.75;691755;28;1468;-60
2023/07/06 01:34:06;;;;;;;6.05;3.22;;;;;;;11.40;100.00;100798.88;692664;28;1365;-60
2023/07/06 01:34:38;;;;;;;5.97;3.30;;;;;;;11.42;100.00;100801.47;688828;28;4932;-60
2023/07/06 01:35:27;;;;;;;5.07;3.30;;;;;;;11.42;100.00;100793.63;686808;28;1430;-61
2023/07/06 01:35:57;;;;;;;5.38;3.05;;;;;;;11.41;100.00;100794.53;685071;28;1047;-60
2023/07/06 01:36:30;;;;;;;5.10;3.20;;;;;;;11.40;100.00;100795.38;686548;28;941;-60
2023/07/06 01:37:15;;;;;;;5.40;3.08;;;;;;;11.43;100.00;100800.59;687317;28;2248;-61
2023/07/06 01:37:41;;;;;;;5.57;3.22;;;;;;;11.36;100.00;100801.53;685538;28;6416;-60
2023/07/06 01:38:02;;;;;;;4.88;3.10;;;;;;;11.37;100.00;100805.88;687378;28;826;-60
2023/07/06 01:38:23;;;;;;;5.32;3.13;;;;;;;11.39;100.00;100801.50;685035;28;3532;-60
2023/07/06 01:38:47;;;;;;;5.70;3.10;;;;;;;11.40;100.00;100806.72;684789;28;1574;-60
2023/07/06 01:39:16;;;;;;;5.90;3.47;;;;;;;11.36;100.00;100801.53;685202;28;1043;-61
2023/07/06 01:39:37;;;;;;;4.80;3.10;;;;;;;11.32;100.00;100800.66;687466;28;1565;-60
2023/07/06 01:39:59;;;;;;;5.30;3.50;;;;;;;11.34;100.00;100800.66;690476;28;1005;-60
2023/07/06 01:40:19;;;;;;;5.13;3.25;;;;;;;11.35;100.00;100794.53;688719;28;4428;-62
2023/07/06 01:40:40;;;;;;;5.53;3.20;;;;;;;11.34;100.00;100804.16;689216;28;1531;-60
2023/07/06 01:41:01;;;;;;;5.72;3.33;;;;;;;11.33;100.00;100798.94;691074;28;1166;-60
2023/07/06 01:41:26;;;;;;;5.97;3.30;;;;;;;11.30;100.00;100801.53;691105;28;793;-60
2023/07/06 01:42:18;;;;;;;4.78;3.17;;;;;;;11.28;100.00;100792.84;692122;28;883;-60
2023/07/06 01:42:42;;;;;;;4.97;3.03;;;;;;;11.27;100.00;100801.56;691432;28;1771;-60
2023/07/06 01:43:03;;;;;;;4.80;3.05;;;;;;;11.25;100.00;100791.97;693094;28;955;-61
2023/07/06 01:43:25;;;;;;;5.80;3.37;;;;;;;11.27;100.00;100806.78;693121;28;4385;-60
2023/07/06 01:43:46;;;;;;;5.32;3.00;;;;;;;11.28;100.00;100800.69;689264;28;1462;-61
2023/07/06 01:44:12;;;;;;;5.63;2.90;;;;;;;11.28;100.00;100798.06;688596;28;873;-60
2023/07/06 01:44:33;;;;;;;4.90;3.20;;;;;;;11.29;100.00;100794.59;686639;28;1715;-60
2023/07/06 01:44:57;;;;;;;4.93;3.33;;;;;;;11.27;100.00;100797.22;684930;28;2076;-60
2023/07/06 01:45:21;;;;;;;5.30;3.20;;;;;;;11.29;100.00;100794.59;684769;28;1449;-60
2023/07/06 01:45:46;;;;;;;6.88;3.20;;;;;;;11.30;100.00;100796.31;685650;28;1631;-60
2023/07/06 01:46:07;;;;;;;4.90;3.28;;;;;;;11.32;100.00;100799.78;684609;28;4706;-60
2023/07/06 01:46:28;;;;;;;6.35;3.60;;;;;;;11.32;100.00;100795.41;685158;28;1678;-60
2023/07/06 01:46:53;;;;;;;5.90;3.38;;;;;;;11.33;100.00;100798.94;684306;28;1362;-60
2023/07/06 01:47:16;;;;;;;5.80;3.30;;;;;;;11.31;100.00;100803.28;685442;28;1011;-60
2023/07/06 01:47:43;;;;;;;6.00;3.50;;;;;;;11.30;100.00;100801.53;684180;28;1454;-60
2023/07/06 01:48:07;;;;;;;5.00;3.08;;;;;;;11.31;100.00;100804.19;685393;28;1918;-60
2023/07/06 01:48:29;;;;;;;5.18;3.50;;;;;;;11.27;100.00;100794.59;686482;28;1536;-61
2023/07/06 01:48:49;;;;;;;4.93;3.22;;;;;;;11.25;100.00;100805.03;690885;28;864;-60
2023/07/06 01:49:10;;;;;;;5.77;3.10;;;;;;;11.23;100.00;100800.72;687090;28;4752;-60
2023/07/06 01:49:31;;;;;;;4.88;3.00;;;;;;;11.23;100.00;100801.59;686662;28;1587;-60
2023/07/06 01:49:52;;;;;;;5.50;3.10;;;;;;;11.22;100.00;100807.69;688802;28;861;-60
2023/07/06 01:50:15;;;;;;;5.60;3.10;;;;;;;11.23;100.00;100806.81;690046;28;991;-60
2023/07/06 01:51:18;;;;;;;5.60;3.10;;;;;;;11.25;100.00;100814.66;689655;28;1489;-60
2023/07/06 01:51:53;;;;;;;4.82;3.30;;;;;;;11.26;100.00;100805.94;689343;28;1680;-60
2023/07/06 01:52:40;;;;;;;5.18;3.00;;;;;;;11.28;100.00;100811.16;685715;28;4309;-60
2023/07/06 01:53:01;;;;;;;4.80;2.90;;;;;;;11.31;100.00;100808.50;690384;28;1066;-60
2023/07/06 01:53:33;;;;;;;4.60;3.08;;;;;;;11.29;100.00;100810.28;690613;28;1357;-60
2023/07/06 01:54:02;;;;;;;5.25;3.17;;;;;;;11.29;100.00;100810.28;692544;28;841;-61
2023/07/06 01:54:33;;;;;;;6.13;3.30;;;;;;;11.28;100.00;100809.41;692236;28;1192;-60
2023/07/06 01:55:09;;;;;;;6.43;3.28;;;;;;;11.29;100.00;100810.28;693124;28;1302;-60
2023/07/06 01:55:40;;;;;;;5.55;3.28;;;;;;;11.28;100.00;100812.00;691247;28;4723;-60
2023/07/06 01:56:07;;;;;;;6.53;3.20;;;;;;;11.32;100.00;100812.88;692200;28;902;-60
2023/07/06 01:56:58;;;;;;;5.65;3.17;;;;;;;11.31;100.00;100808.50;690679;28;1354;-60
2023/07/06 01:57:27;;;;;;;5.03;3.03;;;;;;;11.30;100.00;100812.00;686667;28;1930;-60
2023/07/06 01:57:59;;;;;;;5.10;3.00;;;;;;;11.28;100.00;100808.53;689495;28;1163;-60
2023/07/06 01:58:29;;;;;;;5.53;3.08;;;;;;;11.24;100.00;100808.56;682671;28;4554;-60
2023/07/06 01:59:01;;;;;;;5.10;3.35;;;;;;;11.28;100.00;100812.00;683208;28;1016;-60
2023/07/06 01:59:26;;;;;;;4.55;2.90;;;;;;;11.27;100.00;100802.44;686685;28;900;-60
2023/07/06 01:59:50;;;;;;;5.50;3.40;;;;;;;11.27;100.00;100812.03;683460;28;1481;-60